sensor_id;sensor_type;location;lat;lon;timestamp;temperature;humidity
3876;DHT22;1953;51.222;6.624;2023-04-15T00:04:26;10.30;1.00
3876;DHT22;1953;51.222;6.624;2023-04-15T00:10:52;10.10;1.00
3876;DHT22;1953;51.222;6.624;2023-04-15T00:15:34;9.80;1.00
3876;DHT22;1953;51.222;6.624;2023-04-15T00:20:17;9.70;1.00
3876;DHT22;1953;51.222;6.624;2023-04-15T00:25:00;9.80;1.00
3876;DHT22;1953;51.222;6.624;2023-04-15T00:29:44;9.70;1.00
3876;DHT22;1953;51.222;6.624;2023-04-15T00:34:26;9.60;1.00
3876;DHT22;1953;51.222;6.624;2023-04-15T00:39:09;9.60;1.00
3876;DHT22;1953;51.222;6.624;2023-04-15T00:43:51;9.60;1.00
3876;DHT22;1953;51.222;6.624;2023-04-15T00:48:36;9.50;1.00
3876;DHT22;1953;51.222;6.624;2023-04-15T00:53:19;9.40;1.00
3876;DHT22;1953;51.222;6.624;2023-04-15T00:58:01;9.40;1.00
3876;DHT22;1953;51.222;6.624;2023-04-15T01:02:44;9.40;1.00
3876;DHT22;1953;51.222;6.624;2023-04-15T01:07:28;9.30;1.00
3876;DHT22;1953;51.222;6.624;2023-04-15T01:12:11;9.30;1.00
3876;DHT22;1953;51.222;6.624;2023-04-15T01:16:55;9.30;1.00
3876;DHT22;1953;51.222;6.624;2023-04-15T01:21:39;9.20;1.00
3876;DHT22;1953;51.222;6.624;2023-04-15T01:26:23;9.10;1.00
3876;DHT22;1953;51.222;6.624;2023-04-15T01:31:06;9.10;1.00
3876;DHT22;1953;51.222;6.624;2023-04-15T01:35:49;9.00;1.00
3876;DHT22;1953;51.222;6.624;2023-04-15T01:40:32;9.00;1.00
3876;DHT22;1953;51.222;6.624;2023-04-15T01:45:16;9.00;1.00
3876;DHT22;1953;51.222;6.624;2023-04-15T01:49:59;8.90;1.00
3876;DHT22;1953;51.222;6.624;2023-04-15T01:54:41;8.90;1.00
3876;DHT22;1953;51.222;6.624;2023-04-15T01:59:24;8.70;1.00
3876;DHT22;1953;51.222;6.624;2023-04-15T02:04:08;8.50;1.00
3876;DHT22;1953;51.222;6.624;2023-04-15T02:08:56;8.50;1.00
3876;DHT22;1953;51.222;6.624;2023-04-15T02:13:39;8.40;1.00
3876;DHT22;1953;51.222;6.624;2023-04-15T02:18:21;8.40;1.00
3876;DHT22;1953;51.222;6.624;2023-04-15T02:23:05;8.30;1.00
3876;DHT22;1953;51.222;6.624;2023-04-15T02:27:48;8.20;1.00
3876;DHT22;1953;51.222;6.624;2023-04-15T02:32:31;8.00;1.00
3876;DHT22;1953;51.222;6.624;2023-04-15T02:37:13;7.90;1.00
3876;DHT22;1953;51.222;6.624;2023-04-15T02:41:57;8.00;1.00
3876;DHT22;1953;51.222;6.624;2023-04-15T02:46:41;7.90;1.00
3876;DHT22;1953;51.222;6.624;2023-04-15T02:51:23;7.90;1.00
3876;DHT22;1953;51.222;6.624;2023-04-15T02:56:06;7.90;1.00
3876;DHT22;1953;51.222;6.624;2023-04-15T03:00:50;7.80;1.00
3876;DHT22;1953;51.222;6.624;2023-04-15T03:05:32;7.70;1.00
3876;DHT22;1953;51.222;6.624;2023-04-15T03:10:15;7.60;1.00
3876;DHT22;1953;51.222;6.624;2023-04-15T03:14:57;7.60;1.00
3876;DHT22;1953;51.222;6.624;2023-04-15T03:19:43;7.70;1.00
3876;DHT22;1953;51.222;6.624;2023-04-15T03:24:26;7.70;1.00
3876;DHT22;1953;51.222;6.624;2023-04-15T03:29:10;7.70;1.00
3876;DHT22;1953;51.222;6.624;2023-04-15T03:33:52;7.60;1.00
3876;DHT22;1953;51.222;6.624;2023-04-15T03:38:36;7.50;1.00
3876;DHT22;1953;51.222;6.624;2023-04-15T03:43:18;7.50;1.00
3876;DHT22;1953;51.222;6.624;2023-04-15T03:48:01;7.40;1.00
3876;DHT22;1953;51.222;6.624;2023-04-15T03:52:44;7.40;1.00
3876;DHT22;1953;51.222;6.624;2023-04-15T03:57:28;7.30;1.00
3876;DHT22;1953;51.222;6.624;2023-04-15T04:02:10;7.20;1.00
3876;DHT22;1953;51.222;6.624;2023-04-15T04:06:53;7.20;1.00
3876;DHT22;1953;51.222;6.624;2023-04-15T04:11:35;7.10;1.00
3876;DHT22;1953;51.222;6.624;2023-04-15T04:16:20;7.10;1.00
3876;DHT22;1953;51.222;6.624;2023-04-15T04:21:02;7.10;1.00
3876;DHT22;1953;51.222;6.624;2023-04-15T04:25:45;7.00;1.00
3876;DHT22;1953;51.222;6.624;2023-04-15T04:30:28;7.10;1.00
3876;DHT22;1953;51.222;6.624;2023-04-15T04:35:12;7.10;1.00
3876;DHT22;1953;51.222;6.624;2023-04-15T04:39:54;7.00;1.00
3876;DHT22;1953;51.222;6.624;2023-04-15T04:44:37;7.00;1.00
3876;DHT22;1953;51.222;6.624;2023-04-15T04:49:19;7.00;1.00
3876;DHT22;1953;51.222;6.624;2023-04-15T04:54:03;7.10;1.00
3876;DHT22;1953;51.222;6.624;2023-04-15T04:58:46;7.10;1.00
3876;DHT22;1953;51.222;6.624;2023-04-15T05:03:28;7.10;1.00
3876;DHT22;1953;51.222;6.624;2023-04-15T05:08:11;7.20;1.00
3876;DHT22;1953;51.222;6.624;2023-04-15T05:12:55;7.30;1.00
3876;DHT22;1953;51.222;6.624;2023-04-15T05:17:38;7.30;1.00
3876;DHT22;1953;51.222;6.624;2023-04-15T05:22:21;7.40;1.00
3876;DHT22;1953;51.222;6.624;2023-04-15T05:27:03;7.50;1.00
3876;DHT22;1953;51.222;6.624;2023-04-15T05:31:47;7.50;1.00
3876;DHT22;1953;51.222;6.624;2023-04-15T05:36:30;7.60;1.00
3876;DHT22;1953;51.222;6.624;2023-04-15T05:41:12;7.70;1.00
3876;DHT22;1953;51.222;6.624;2023-04-15T05:45:56;7.80;1.00
3876;DHT22;1953;51.222;6.624;2023-04-15T05:50:41;7.80;1.00
3876;DHT22;1953;51.222;6.624;2023-04-15T05:55:23;7.90;1.00
3876;DHT22;1953;51.222;6.624;2023-04-15T06:00:07;8.10;1.00
3876;DHT22;1953;51.222;6.624;2023-04-15T06:04:50;8.20;1.00
3876;DHT22;1953;51.222;6.624;2023-04-15T06:09:34;8.30;1.00
3876;DHT22;1953;51.222;6.624;2023-04-15T06:14:16;8.50;1.00
3876;DHT22;1953;51.222;6.624;2023-04-15T06:18:59;8.70;1.00
3876;DHT22;1953;51.222;6.624;2023-04-15T06:23:41;8.80;1.00
3876;DHT22;1953;51.222;6.624;2023-04-15T06:28:25;8.90;1.00
3876;DHT22;1953;51.222;6.624;2023-04-15T06:33:08;9.00;1.00
3876;DHT22;1953;51.222;6.624;2023-04-15T06:37:50;9.00;1.00
3876;DHT22;1953;51.222;6.624;2023-04-15T06:42:33;9.10;1.00
3876;DHT22;1953;51.222;6.624;2023-04-15T06:47:18;9.20;1.00
3876;DHT22;1953;51.222;6.624;2023-04-15T06:52:01;9.30;1.00
3876;DHT22;1953;51.222;6.624;2023-04-15T06:56:45;9.40;1.00
3876;DHT22;1953;51.222;6.624;2023-04-15T07:01:27;9.60;1.00
3876;DHT22;1953;51.222;6.624;2023-04-15T07:06:11;9.80;1.00
3876;DHT22;1953;51.222;6.624;2023-04-15T07:10:54;10.00;1.00
3876;DHT22;1953;51.222;6.624;2023-04-15T07:15:37;10.20;1.00
3876;DHT22;1953;51.222;6.624;2023-04-15T07:20:19;10.30;1.00
3876;DHT22;1953;51.222;6.624;2023-04-15T07:25:04;10.60;1.00
3876;DHT22;1953;51.222;6.624;2023-04-15T07:29:47;10.80;1.00
3876;DHT22;1953;51.222;6.624;2023-04-15T07:34:32;11.00;1.00
3876;DHT22;1953;51.222;6.624;2023-04-15T07:39:14;11.10;1.00
3876;DHT22;1953;51.222;6.624;2023-04-15T07:43:58;11.40;1.00
3876;DHT22;1953;51.222;6.624;2023-04-15T07:48:41;11.50;1.00
3876;DHT22;1953;51.222;6.624;2023-04-15T07:53:23;11.80;1.00
3876;DHT22;1953;51.222;6.624;2023-04-15T07:58:06;12.00;1.00
3876;DHT22;1953;51.222;6.624;2023-04-15T08:02:50;12.30;1.00
3876;DHT22;1953;51.222;6.624;2023-04-15T08:07:35;12.50;1.00
3876;DHT22;1953;51.222;6.624;2023-04-15T08:12:17;12.60;1.00
3876;DHT22;1953;51.222;6.624;2023-04-15T08:17:00;12.90;1.00
3876;DHT22;1953;51.222;6.624;2023-04-15T08:21:44;12.90;1.00
3876;DHT22;1953;51.222;6.624;2023-04-15T08:26:26;12.80;1.00
3876;DHT22;1953;51.222;6.624;2023-04-15T08:31:09;12.80;1.00
3876;DHT22;1953;51.222;6.624;2023-04-15T08:35:52;13.10;1.00
3876;DHT22;1953;51.222;6.624;2023-04-15T08:40:42;13.10;1.00
3876;DHT22;1953;51.222;6.624;2023-04-15T08:45:25;13.30;1.00
3876;DHT22;1953;51.222;6.624;2023-04-15T08:50:09;13.50;1.00
3876;DHT22;1953;51.222;6.624;2023-04-15T08:54:56;13.70;1.00
3876;DHT22;1953;51.222;6.624;2023-04-15T08:59:40;13.60;1.00
3876;DHT22;1953;51.222;6.624;2023-04-15T09:04:24;13.70;1.00
3876;DHT22;1953;51.222;6.624;2023-04-15T09:09:06;13.90;1.00
3876;DHT22;1953;51.222;6.624;2023-04-15T09:13:49;14.10;1.00
3876;DHT22;1953;51.222;6.624;2023-04-15T09:18:34;14.10;1.00
3876;DHT22;1953;51.222;6.624;2023-04-15T09:23:17;14.30;1.00
3876;DHT22;1953;51.222;6.624;2023-04-15T09:28:02;14.20;1.00
3876;DHT22;1953;51.222;6.624;2023-04-15T09:32:49;14.40;1.00
3876;DHT22;1953;51.222;6.624;2023-04-15T09:37:35;14.50;1.00
3876;DHT22;1953;51.222;6.624;2023-04-15T09:42:18;14.70;1.00
3876;DHT22;1953;51.222;6.624;2023-04-15T09:47:05;15.00;1.00
3876;DHT22;1953;51.222;6.624;2023-04-15T09:51:47;14.80;1.00
3876;DHT22;1953;51.222;6.624;2023-04-15T09:56:33;14.60;1.00
3876;DHT22;1953;51.222;6.624;2023-04-15T10:01:16;14.60;1.00
3876;DHT22;1953;51.222;6.624;2023-04-15T10:06:00;14.50;1.00
3876;DHT22;1953;51.222;6.624;2023-04-15T10:10:44;14.50;1.00
3876;DHT22;1953;51.222;6.624;2023-04-15T10:15:28;14.60;1.00
3876;DHT22;1953;51.222;6.624;2023-04-15T10:20:12;14.40;1.00
3876;DHT22;1953;51.222;6.624;2023-04-15T10:24:56;14.70;1.00
3876;DHT22;1953;51.222;6.624;2023-04-15T10:29:40;14.80;1.00
3876;DHT22;1953;51.222;6.624;2023-04-15T10:34:24;14.80;1.00
3876;DHT22;1953;51.222;6.624;2023-04-15T10:39:37;14.90;1.00
3876;DHT22;1953;51.222;6.624;2023-04-15T10:44:19;14.70;1.00
3876;DHT22;1953;51.222;6.624;2023-04-15T10:49:07;14.80;1.00
3876;DHT22;1953;51.222;6.624;2023-04-15T10:53:55;15.00;1.00
3876;DHT22;1953;51.222;6.624;2023-04-15T10:58:42;15.00;1.00
3876;DHT22;1953;51.222;6.624;2023-04-15T11:03:36;14.80;1.00
3876;DHT22;1953;51.222;6.624;2023-04-15T11:08:19;15.00;1.00
3876;DHT22;1953;51.222;6.624;2023-04-15T11:13:31;15.00;1.00
3876;DHT22;1953;51.222;6.624;2023-04-15T11:18:15;14.90;1.00
3876;DHT22;1953;51.222;6.624;2023-04-15T11:22:58;15.10;1.00
3876;DHT22;1953;51.222;6.624;2023-04-15T11:27:41;15.20;1.00
3876;DHT22;1953;51.222;6.624;2023-04-15T11:32:25;15.30;1.00
3876;DHT22;1953;51.222;6.624;2023-04-15T11:37:07;15.30;1.00
3876;DHT22;1953;51.222;6.624;2023-04-15T11:41:50;15.30;1.00
3876;DHT22;1953;51.222;6.624;2023-04-15T11:46:32;15.20;1.00
3876;DHT22;1953;51.222;6.624;2023-04-15T11:51:16;15.10;1.00
3876;DHT22;1953;51.222;6.624;2023-04-15T11:56:02;15.20;1.00
3876;DHT22;1953;51.222;6.624;2023-04-15T12:00:49;15.20;1.00
3876;DHT22;1953;51.222;6.624;2023-04-15T12:05:32;14.80;1.00
3876;DHT22;1953;51.222;6.624;2023-04-15T12:11:56;14.70;1.00
3876;DHT22;1953;51.222;6.624;2023-04-15T12:16:40;14.80;1.00
3876;DHT22;1953;51.222;6.624;2023-04-15T12:21:25;14.80;1.00
3876;DHT22;1953;51.222;6.624;2023-04-15T12:26:09;14.70;1.00
3876;DHT22;1953;51.222;6.624;2023-04-15T12:30:53;14.80;1.00
3876;DHT22;1953;51.222;6.624;2023-04-15T12:35:36;14.90;1.00
3876;DHT22;1953;51.222;6.624;2023-04-15T12:40:19;14.70;1.00
3876;DHT22;1953;51.222;6.624;2023-04-15T12:45:01;14.60;1.00
3876;DHT22;1953;51.222;6.624;2023-04-15T12:49:45;14.60;1.00
3876;DHT22;1953;51.222;6.624;2023-04-15T12:54:30;14.60;1.00
3876;DHT22;1953;51.222;6.624;2023-04-15T12:59:13;14.60;1.00
3876;DHT22;1953;51.222;6.624;2023-04-15T13:03:56;14.50;1.00
3876;DHT22;1953;51.222;6.624;2023-04-15T13:08:40;14.90;1.00
3876;DHT22;1953;51.222;6.624;2023-04-15T13:13:22;14.80;1.00
3876;DHT22;1953;51.222;6.624;2023-04-15T13:18:06;14.70;1.00
3876;DHT22;1953;51.222;6.624;2023-04-15T13:22:51;14.60;1.00
3876;DHT22;1953;51.222;6.624;2023-04-15T13:27:35;14.40;1.00
3876;DHT22;1953;51.222;6.624;2023-04-15T13:32:18;14.10;1.00
3876;DHT22;1953;51.222;6.624;2023-04-15T13:37:05;13.90;1.00
3876;DHT22;1953;51.222;6.624;2023-04-15T13:41:48;13.90;1.00
3876;DHT22;1953;51.222;6.624;2023-04-15T13:46:32;13.90;1.00
3876;DHT22;1953;51.222;6.624;2023-04-15T13:51:14;13.70;1.00
3876;DHT22;1953;51.222;6.624;2023-04-15T13:55:57;15.20;1.00
3876;DHT22;1953;51.222;6.624;2023-04-15T14:00:39;13.90;1.00
3876;DHT22;1953;51.222;6.624;2023-04-15T14:05:23;13.90;1.00
3876;DHT22;1953;51.222;6.624;2023-04-15T14:10:07;13.90;1.00
3876;DHT22;1953;51.222;6.624;2023-04-15T14:14:49;13.80;1.00
3876;DHT22;1953;51.222;6.624;2023-04-15T14:19:32;13.60;1.00
3876;DHT22;1953;51.222;6.624;2023-04-15T14:24:16;13.60;1.00
3876;DHT22;1953;51.222;6.624;2023-04-15T14:28:58;13.50;1.00
3876;DHT22;1953;51.222;6.624;2023-04-15T14:33:41;13.30;1.00
3876;DHT22;1953;51.222;6.624;2023-04-15T14:38:23;13.40;1.00
3876;DHT22;1953;51.222;6.624;2023-04-15T14:43:07;13.20;1.00
3876;DHT22;1953;51.222;6.624;2023-04-15T14:47:50;13.00;1.00
3876;DHT22;1953;51.222;6.624;2023-04-15T14:52:33;13.00;1.00
3876;DHT22;1953;51.222;6.624;2023-04-15T14:57:19;12.90;1.00
3876;DHT22;1953;51.222;6.624;2023-04-15T15:02:03;12.90;1.00
3876;DHT22;1953;51.222;6.624;2023-04-15T15:06:45;12.90;1.00
3876;DHT22;1953;51.222;6.624;2023-04-15T15:11:28;12.90;1.00
3876;DHT22;1953;51.222;6.624;2023-04-15T15:16:11;13.00;1.00
3876;DHT22;1953;51.222;6.624;2023-04-15T15:20:55;13.10;1.00
3876;DHT22;1953;51.222;6.624;2023-04-15T15:25:38;13.10;1.00
3876;DHT22;1953;51.222;6.624;2023-04-15T15:30:20;13.20;1.00
3876;DHT22;1953;51.222;6.624;2023-04-15T15:35:03;13.30;1.00
3876;DHT22;1953;51.222;6.624;2023-04-15T15:39:47;13.20;1.00
3876;DHT22;1953;51.222;6.624;2023-04-15T15:44:30;13.00;1.00
3876;DHT22;1953;51.222;6.624;2023-04-15T15:49:13;13.00;1.00
3876;DHT22;1953;51.222;6.624;2023-04-15T15:53:56;13.00;1.00
3876;DHT22;1953;51.222;6.624;2023-04-15T15:58:40;12.80;1.00
3876;DHT22;1953;51.222;6.624;2023-04-15T16:03:24;11.70;1.00
3876;DHT22;1953;51.222;6.624;2023-04-15T16:08:06;12.90;1.00
3876;DHT22;1953;51.222;6.624;2023-04-15T16:12:49;12.90;1.00
3876;DHT22;1953;51.222;6.624;2023-04-15T16:17:33;12.80;1.00
3876;DHT22;1953;51.222;6.624;2023-04-15T16:22:15;12.90;1.00
3876;DHT22;1953;51.222;6.624;2023-04-15T16:26:58;12.70;1.00
3876;DHT22;1953;51.222;6.624;2023-04-15T16:31:40;12.60;1.00
3876;DHT22;1953;51.222;6.624;2023-04-15T16:36:24;12.70;1.00
3876;DHT22;1953;51.222;6.624;2023-04-15T16:41:07;12.60;1.00
3876;DHT22;1953;51.222;6.624;2023-04-15T16:45:50;12.60;1.00
3876;DHT22;1953;51.222;6.624;2023-04-15T16:50:32;12.50;1.00
3876;DHT22;1953;51.222;6.624;2023-04-15T16:55:16;12.50;1.00
3876;DHT22;1953;51.222;6.624;2023-04-15T16:59:59;12.50;1.00
3876;DHT22;1953;51.222;6.624;2023-04-15T17:04:42;12.40;1.00
3876;DHT22;1953;51.222;6.624;2023-04-15T17:09:24;12.30;1.00
3876;DHT22;1953;51.222;6.624;2023-04-15T17:14:08;12.10;1.00
3876;DHT22;1953;51.222;6.624;2023-04-15T17:18:51;11.90;1.00
3876;DHT22;1953;51.222;6.624;2023-04-15T17:23:33;12.00;1.00
3876;DHT22;1953;51.222;6.624;2023-04-15T17:28:16;11.90;1.00
3876;DHT22;1953;51.222;6.624;2023-04-15T17:33:00;11.90;1.00
3876;DHT22;1953;51.222;6.624;2023-04-15T17:37:43;11.90;1.00
3876;DHT22;1953;51.222;6.624;2023-04-15T17:42:25;11.80;1.00
3876;DHT22;1953;51.222;6.624;2023-04-15T17:47:08;11.70;1.00
3876;DHT22;1953;51.222;6.624;2023-04-15T17:51:52;11.60;1.00
3876;DHT22;1953;51.222;6.624;2023-04-15T17:56:35;11.50;1.00
3876;DHT22;1953;51.222;6.624;2023-04-15T18:01:18;11.40;1.00
3876;DHT22;1953;51.222;6.624;2023-04-15T18:06:02;11.20;1.00
3876;DHT22;1953;51.222;6.624;2023-04-15T18:10:46;11.10;1.00
3876;DHT22;1953;51.222;6.624;2023-04-15T18:15:29;11.00;1.00
3876;DHT22;1953;51.222;6.624;2023-04-15T18:20:11;11.00;1.00
3876;DHT22;1953;51.222;6.624;2023-04-15T18:24:54;10.80;1.00
3876;DHT22;1953;51.222;6.624;2023-04-15T18:29:40;10.90;1.00
3876;DHT22;1953;51.222;6.624;2023-04-15T18:34:23;10.70;1.00
3876;DHT22;1953;51.222;6.624;2023-04-15T18:39:06;10.70;1.00
3876;DHT22;1953;51.222;6.624;2023-04-15T18:43:49;10.60;1.00
3876;DHT22;1953;51.222;6.624;2023-04-15T18:48:32;10.60;1.00
3876;DHT22;1953;51.222;6.624;2023-04-15T18:53:15;10.70;1.00
3876;DHT22;1953;51.222;6.624;2023-04-15T18:57:58;10.60;1.00
3876;DHT22;1953;51.222;6.624;2023-04-15T19:02:19;10.50;1.00
3876;DHT22;1953;51.222;6.624;2023-04-15T19:07:03;10.50;1.00
3876;DHT22;1953;51.222;6.624;2023-04-15T19:11:46;10.40;1.00
3876;DHT22;1953;51.222;6.624;2023-04-15T19:16:28;10.30;1.00
3876;DHT22;1953;51.222;6.624;2023-04-15T19:21:11;10.10;1.00
3876;DHT22;1953;51.222;6.624;2023-04-15T19:25:55;10.00;1.00
3876;DHT22;1953;51.222;6.624;2023-04-15T19:30:39;10.00;1.00
3876;DHT22;1953;51.222;6.624;2023-04-15T19:35:21;10.00;1.00
3876;DHT22;1953;51.222;6.624;2023-04-15T19:40:05;10.00;1.00
3876;DHT22;1953;51.222;6.624;2023-04-15T19:44:50;10.00;1.00
3876;DHT22;1953;51.222;6.624;2023-04-15T19:49:32;10.10;1.00
3876;DHT22;1953;51.222;6.624;2023-04-15T19:54:15;10.00;1.00
3876;DHT22;1953;51.222;6.624;2023-04-15T19:58:57;10.10;1.00
3876;DHT22;1953;51.222;6.624;2023-04-15T20:03:41;10.20;1.00
3876;DHT22;1953;51.222;6.624;2023-04-15T20:08:24;10.10;1.00
3876;DHT22;1953;51.222;6.624;2023-04-15T20:13:06;10.10;1.00
3876;DHT22;1953;51.222;6.624;2023-04-15T20:17:49;10.10;1.00
3876;DHT22;1953;51.222;6.624;2023-04-15T20:22:33;10.00;1.00
3876;DHT22;1953;51.222;6.624;2023-04-15T20:27:16;10.00;1.00
3876;DHT22;1953;51.222;6.624;2023-04-15T20:31:58;9.90;1.00
3876;DHT22;1953;51.222;6.624;2023-04-15T20:36:41;9.90;1.00
3876;DHT22;1953;51.222;6.624;2023-04-15T20:41:24;9.80;1.00
3876;DHT22;1953;51.222;6.624;2023-04-15T20:46:07;9.90;1.00
3876;DHT22;1953;51.222;6.624;2023-04-15T20:50:50;9.80;1.00
3876;DHT22;1953;51.222;6.624;2023-04-15T20:55:32;9.90;1.00
3876;DHT22;1953;51.222;6.624;2023-04-15T21:00:16;9.70;1.00
3876;DHT22;1953;51.222;6.624;2023-04-15T21:04:59;9.70;1.00
3876;DHT22;1953;51.222;6.624;2023-04-15T21:09:41;9.70;1.00
3876;DHT22;1953;51.222;6.624;2023-04-15T21:14:24;9.70;1.00
3876;DHT22;1953;51.222;6.624;2023-04-15T21:19:08;9.70;1.00
3876;DHT22;1953;51.222;6.624;2023-04-15T21:23:51;9.70;1.00
3876;DHT22;1953;51.222;6.624;2023-04-15T21:28:33;9.70;1.00
3876;DHT22;1953;51.222;6.624;2023-04-15T21:33:17;9.70;1.00
3876;DHT22;1953;51.222;6.624;2023-04-15T21:38:01;9.70;1.00
3876;DHT22;1953;51.222;6.624;2023-04-15T21:42:44;9.80;1.00
3876;DHT22;1953;51.222;6.624;2023-04-15T21:47:28;9.80;1.00
3876;DHT22;1953;51.222;6.624;2023-04-15T21:52:11;9.70;1.00
3876;DHT22;1953;51.222;6.624;2023-04-15T21:56:55;9.70;1.00
3876;DHT22;1953;51.222;6.624;2023-04-15T22:01:38;9.70;1.00
3876;DHT22;1953;51.222;6.624;2023-04-15T22:06:20;9.80;1.00
3876;DHT22;1953;51.222;6.624;2023-04-15T22:11:03;9.80;1.00
3876;DHT22;1953;51.222;6.624;2023-04-15T22:15:47;9.80;1.00
3876;DHT22;1953;51.222;6.624;2023-04-15T22:20:29;9.80;1.00
3876;DHT22;1953;51.222;6.624;2023-04-15T22:25:12;9.80;1.00
3876;DHT22;1953;51.222;6.624;2023-04-15T22:29:55;9.80;1.00
3876;DHT22;1953;51.222;6.624;2023-04-15T22:34:39;9.70;1.00
3876;DHT22;1953;51.222;6.624;2023-04-15T22:39:21;9.70;1.00
3876;DHT22;1953;51.222;6.624;2023-04-15T22:44:04;9.80;1.00
3876;DHT22;1953;51.222;6.624;2023-04-15T22:48:46;9.80;1.00
3876;DHT22;1953;51.222;6.624;2023-04-15T22:53:30;9.80;1.00
3876;DHT22;1953;51.222;6.624;2023-04-15T22:58:13;9.70;1.00
3876;DHT22;1953;51.222;6.624;2023-04-15T23:02:56;9.70;1.00
3876;DHT22;1953;51.222;6.624;2023-04-15T23:07:38;9.70;1.00
3876;DHT22;1953;51.222;6.624;2023-04-15T23:12:22;9.70;1.00
3876;DHT22;1953;51.222;6.624;2023-04-15T23:17:05;9.70;1.00
3876;DHT22;1953;51.222;6.624;2023-04-15T23:21:47;9.80;1.00
3876;DHT22;1953;51.222;6.624;2023-04-15T23:26:30;9.80;1.00
3876;DHT22;1953;51.222;6.624;2023-04-15T23:31:14;9.80;1.00
3876;DHT22;1953;51.222;6.624;2023-04-15T23:35:56;9.70;1.00
3876;DHT22;1953;51.222;6.624;2023-04-15T23:40:39;9.70;1.00
3876;DHT22;1953;51.222;6.624;2023-04-15T23:45:21;9.70;1.00
3876;DHT22;1953;51.222;6.624;2023-04-15T23:50:06;9.90;1.00
3876;DHT22;1953;51.222;6.624;2023-04-15T23:54:49;10.00;1.00
3876;DHT22;1953;51.222;6.624;2023-04-15T23:59:31;9.90;1.00
